航空気象通報

ウインドサーファーのための航空気象通報による風予報です。

9/29-10/1の航空気象通報

2014年09月29日 23時01分24秒 | TAF

羽田空港
TAF RJTT 291108Z 2912/3018 10008KT 9999 FEW030
BECMG 2919/2921 36004KT
BECMG 3003/3006 16008KT
BECMG 3012/3015 04012KT
日本時間29日21時-30日04時:100度から8ノットの風
04-06時:風が変化
06-12時:360度から4ノットの風
12-15時:風が変化
15-21時:160度から8ノットの風
21時-1日03時:030度から8ノットの風

静岡空港
TAF RJNS 291105Z 2912/3018 32004KT 9999 FEW030
BECMG 3000/3003 14006KT
BECMG 3009/3012 36004KT
日本時間29日21時-30日09時:320度から4ノットの風
09-12時:風が変化
12-18時:140度から6ノットの風
18-21時:風が変化
21時-1日03時:360度から4ノットの風

福岡空港
TAF RJFF 291106Z 2912/3018 02005KT CAVOK
BECMG 2914/2916 08003KT
BECMG 3000/3003 35010KT
BECMG 3009/3012 08003KT
日本時間29日21-23時:020度から5ノットの風
23時-30日01時:風が変化
01-09時:080度から3ノットの風
09-12時:風が変化
12-18時:350度から10ノットの風
18時-1日03時:080度から3ノットの風

那覇空港
TAF ROAH 291105Z 2912/3018 06006KT 9999 FEW025
日本時間29日21時-1日03時:060度から6ノットの風

石垣空港
TAF ROIG 291106Z 2912/3018 06008KT 9999 FEW020
日本時間29日21時-1日03時:060度から8ノットの風

マウイのカフルイ空港
PHOG 291130Z 2912/3012 06005KT P6SM FEW020 BKN060
FM292100 06011G17KT P6SM FEW030 SCT050 BKN080
FM300400 09005KT P6SM FEW030 SCT050 AMD LTD TO WX VIS AND WIND TIL 291600
ハワイ時間29日02-11時:060度から5ノットの風
11-18時:060度から11ノット、突風17ノット

18時-30日02時:090度から5ノットの風

サイパン空港
PGSN 291120Z 2912/3012 06010KT P6SM VCSH SCT015 BKN030
FM292100 35014G22KT P6SM VCTS SCT015CB BKN030
FM300600 31020G30KT P6SM VCTS SCT015CB BKN025
マリアナ時間29日22時-30日07時:060度から10ノットの風
07-16時:350度から14ノット、突風22ノット
16-22時:310度から20ノット、突風30ノット

コメント
この記事をはてなブックマークに追加

9/28-9/30の航空気象通報

2014年09月28日 22時39分48秒 | TAF

羽田空港
TAF RJTT 281105Z 2812/2918 02016KT 9999 FEW030
BECMG 2903/2906 10012KT
BECMG 2912/2915 03008KT
日本時間28日21時-29日12時:020度から16ノットの風
12-15時:風が変化
15-21時:100度から12ノットの風
21-24時:風が変化
30日00-03時:030度から8ノットの風

静岡空港
TAF RJNS 281105Z 2812/2918 33004KT 9999 FEW020
BECMG 2822/2824 18006KT
BECMG 2909/2912 33004KT
日本時間28日21時-29日07時:330度から4ノットの風
07-09時:風が変化
09-18時:180度から6ノットの風
18-21時:風が変化
21時-30日03時:330度から4ノットの風

福岡空港
TAF RJFF 281110Z 2812/2918 02006KT 9999 FEW025
BECMG 2815/2817 10003KT
BECMG 2900/2903 34012KT
日本時間28日21-24時:020度から6ノットの風
29日00-024時:風が変化
02-09時:100度から3ノットの風
09-12時:風が変化
12時-30日03時:340度から12ノットの風

那覇空港
TAF ROAH 281105Z 2812/2918 06008KT 9999 FEW025
日本時間28日21時-30日03時:060度から8ノットの風

石垣空港
TAF ROIG 281110Z 2812/2918 02009KT 9999 FEW020 BKN030
日本時間28日21時-30日03時:020度から9ノットの風

マウイのカフルイ空港
PHOG 281126Z 2812/2912 07010KT P6SM SCT025 BKN050
FM282000 06014G22KT P6SM SCT025 BKN050
FM290400 07010KT P6SM FEW025 SCT050 AMD LTD TO WX VIS AND WIND TIL 281600
ハワイ時間28日02-10時:070度から10ノットの風
10-18時:060度から14ノット、突風22ノット

18時-29日02時:070度から10ノットの風

サイパン空港
PGSN 281120Z 2812/2912 VRB03KT P6SM VCTS SCT015CB BKN030
FM281700 09006KT P6SM VCSH FEW015 SCT025
FM290000 08010KT P6SM VCSH FEW015 SCT025
FM290500 07006KT P6SM VCSH FEW015 SCT025
マリアナ時間28日22時-29日03時:風向不定3ノットの風

03-10時:090度から6ノットの風
10-15時:080度から10ノットの風
15-22時:070度から6ノットの風

コメント
この記事をはてなブックマークに追加

9/27-9/29の航空気象通報

2014年09月27日 22時38分13秒 | TAF

羽田空港
TAF AMD RJTT 271204Z 2712/2818 36015KT 9999 FEW020 BKN040
日本時間27日21時-29日03時:360度から15ノットの風

静岡空港
TAF RJNS 271106Z 2712/2818 05008KT 9999 FEW025
BECMG 2713/2715 33004KT
BECMG 2800/2803 08006KT
BECMG 2812/2815 33004KT
日本時間27日21-22時:050度から8ノットの風
22-24時:風が変化
28日00-09時:330度から4ノットの風
09-12時:風が変化
12-21時:080度から6ノットの風
21-24時:風が変化
29日00-03時:330度から4ノットの風

福岡空港
TAF RJFF 271113Z 2712/2818 02005KT 9999 FEW020
BECMG 2713/2715 13003KT
BECMG 2722/2724 35011KT
日本時間27日21-22時:020度から5ノットの風
22-24時:風が変化
28日00-07時:130度から3ノットの風
07-09時:風が変化
09時-29日03時:350度から11ノットの風

那覇空港
TAF ROAH 271106Z 2712/2818 02012KT 9999 FEW020 SCT040
日本時間27日21時-29日03時:020度から12ノットの風

石垣空港
TAF ROIG 271107Z 2712/2818 03010KT 9999 FEW025 SCT030
日本時間27日21時-29日03時:030度から10ノットの風

マウイのカフルイ空港
PHOG 271135Z 2712/2812 07008KT P6SM VCSH SCT025 BKN050
FM272000 07015G25KT P6SM VCSH SCT025 BKN050
FM280500 07012KT P6SM SCT025 SCT050 AMD LTD TO WX VIS AND WIND TIL 271600
ハワイ時間27日02-10時:070度から8ノットの風
10-19時:070度から15ノット、突風25ノット

19時-28日02時:070度から12ノットの風

サイパン空港
PGSN 271125Z 2712/2812 21005KT P6SM VCSH SCT018 BKN120
FM272300 25009KT P6SM VCSH FEW020 SCT120
FM280800 VRB04KT P6SM VCSH FEW020 BKN120
マリアナ時間27日22時-28日09時:210度から5ノットの風

09-18時:250度から9ノットの風

18-22時:風向不定04ノットの風

コメント
この記事をはてなブックマークに追加

9/26-9/28の航空気象通報

2014年09月26日 23時39分01秒 | TAF

羽田空港
TAF RJTT 261107Z 2612/2718 02016KT 9999 FEW020
日本時間26日21時-28日03時:020度から16ノットの風

静岡空港
TAF RJNS 261110Z 2612/2718 06010KT 9999 FEW030
BECMG 2712/2715 36005KT
日本時間26日21時-27日21時:060度から10ノットの風
21-24時:風が変化
28日00-03時:360度から5ノットの風

福岡空港
TAF RJFF 261116Z 2612/2718 14003KT 9999 FEW030
BECMG 2700/2703 34011KT
BECMG 2712/2715 14003KT
日本時間26日21時-27日09時:140度から3ノットの風
09-12時:風が変化
12-21時:340度から11ノットの風
21-24時:風が変化
28日00-03時:140度から3ノットの風

那覇空港
TAF ROAH 261110Z 2612/2718 02010KT 9999 FEW025
日本時間26日21時-28日03時:020度から10ノットの風

石垣空港
TAF ROIG 261121Z 2612/2718 02007KT 9999 SCT025
日本時間26日21時-28日03時:020度から7ノットの風

マウイのカフルイ空港
PHOG 261120Z 2612/2712 04011KT P6SM VCSH SCT025 BKN060
FM261400 04010KT P6SM FEW025 SCT045
FM262000 04016G23KT P6SM SCT035 BKN060
FM270400 05014KT P6SM SCT025 BKN045 AMD LTD TO WX VIS AND WIND TIL 261600
ハワイ時間26日02-04時:040度から11ノットの風

04-10時:040度から10ノットの風

10-18時:040度から16ノット、突風23ノット
18時-27日02時:050度から14ノットの風

サイパン空港
PGSN 261127Z 2612/2712 21010KT P6SM VCSH SCT018 SCT050 BKN140
FM262300 22010G18KT P6SM VCSH SCT018 BKN050 BKN120
マリアナ時間26日22時-27日09時:210度から10ノットの風
09-22時:220度から10ノット、突風28ノット

コメント
この記事をはてなブックマークに追加

9/25-9/27の航空気象通報

2014年09月25日 23時52分27秒 | TAF

羽田空港
TAF RJTT 251111Z 2512/2618 02013KT 9999 FEW020 SCT025
BECMG 2603/2606 10015KT
BECMG 2609/2612 02014KT
日本時間25日21時-26日12時:020度から13ノットの風
12-15時:風が変化
15-18時:100度から15ノットの風
18-21時:風が変化
21時-27日03時:020度から14ノットの風

静岡空港
TAF RJNS 251106Z 2512/2618 28006KT 9999 FEW020
BECMG 2512/2514 06006KT
日本時間25日21時:280度から6ノットの風
21-23時:風が変化
23時-27日03時:060度から6ノットの風

福岡空港
TAF RJFF 251111Z 2512/2618 02006KT 9999 FEW015
BECMG 2514/2516 15003KT
BECMG 2522/2524 36010KT
BECMG 2612/2615 14003KT
日本時間25日21-23時:020度から6ノットの風
23時-26日01時:風が変化
01-07時:150度から3ノットの風
07-09時:風が変化
09-21時:360度から10ノットの風
21-24時:風が変化
27日00-03時:140度から3ノットの風

那覇空港
TAF ROAH 251106Z 2512/2618 01010KT 9999 FEW025
日本時間25日21時-27日03時:010度から10ノットの風

石垣空港
TAF ROIG 251109Z 2512/2618 04008KT 9999 FEW015 SCT030
TEMPO 2513/2515 4000 SHRA
日本時間25日21時-27日03時:040度から8ノットの風

但し、25日22-24時の間:ときどき

マウイのカフルイ空港
PHOG 251138Z 2512/2612 06006KT P6SM VCSH SCT030 BKN040
FM251900 04015G20KT P6SM VCSH SCT025 BKN045
FM260500 04010KT P6SM VCSH SCT025 SCT045 AMD LTD TO WX VIS AND WIND TIL 251600
ハワイ時間25日02-09時:060度から6ノットの風
09-19時:040度から15ノット、突風20ノット
19時-26日02時:060度から8ノットの風

サイパン空港
PGSN 251120Z 2512/2612 25013KT P6SM VCSH SCT016 SCT040 BKN120
FM252200 24014G24KT P6SM VCSH FEW018 SCT050 BKN140
マリアナ時間25日22時-26日08時:250度から13ノットの風
08-22時:240度から14ノット、突風24ノット

コメント
この記事をはてなブックマークに追加